sensor_id;sensor_type;location;lat;lon;timestamp;P1;durP1;ratioP1;P2;durP2;ratioP2
63945;SDS011;50122;56.330;43.838;2022-08-24T00:00:35;18.27;;;13.38;;
63945;SDS011;50122;56.330;43.838;2022-08-24T00:03:02;20.20;;;14.43;;
63945;SDS011;50122;56.330;43.838;2022-08-24T00:05:29;18.90;;;13.43;;
63945;SDS011;50122;56.330;43.838;2022-08-24T00:07:55;21.05;;;14.07;;
63945;SDS011;50122;56.330;43.838;2022-08-24T00:10:23;22.70;;;13.68;;
63945;SDS011;50122;56.330;43.838;2022-08-24T00:12:51;18.00;;;13.48;;
63945;SDS011;50122;56.330;43.838;2022-08-24T00:15:21;21.25;;;14.50;;
63945;SDS011;50122;56.330;43.838;2022-08-24T00:17:48;20.30;;;14.48;;
63945;SDS011;50122;56.330;43.838;2022-08-24T00:20:15;24.67;;;14.18;;
63945;SDS011;50122;56.330;43.838;2022-08-24T00:22:42;27.27;;;14.48;;
63945;SDS011;50122;56.330;43.838;2022-08-24T00:25:10;25.40;;;14.52;;
63945;SDS011;50122;56.330;43.838;2022-08-24T00:27:38;23.17;;;13.65;;
63945;SDS011;50122;56.330;43.838;2022-08-24T00:30:08;22.40;;;14.32;;
63945;SDS011;50122;56.330;43.838;2022-08-24T00:32:37;27.83;;;14.45;;
63945;SDS011;50122;56.330;43.838;2022-08-24T00:35:05;21.30;;;14.23;;
63945;SDS011;50122;56.330;43.838;2022-08-24T00:37:32;21.80;;;14.30;;
63945;SDS011;50122;56.330;43.838;2022-08-24T00:40:02;18.23;;;13.32;;
63945;SDS011;50122;56.330;43.838;2022-08-24T00:42:31;18.70;;;13.88;;
63945;SDS011;50122;56.330;43.838;2022-08-24T00:44:58;19.77;;;13.75;;
63945;SDS011;50122;56.330;43.838;2022-08-24T00:47:27;21.73;;;14.05;;
63945;SDS011;50122;56.330;43.838;2022-08-24T00:50:02;19.40;;;13.57;;
63945;SDS011;50122;56.330;43.838;2022-08-24T00:52:33;21.48;;;13.68;;
63945;SDS011;50122;56.330;43.838;2022-08-24T00:55:06;18.92;;;13.50;;
63945;SDS011;50122;56.330;43.838;2022-08-24T00:57:40;20.60;;;13.88;;
63945;SDS011;50122;56.330;43.838;2022-08-24T01:00:13;22.17;;;13.57;;
63945;SDS011;50122;56.330;43.838;2022-08-24T01:02:45;21.88;;;13.32;;
63945;SDS011;50122;56.330;43.838;2022-08-24T01:05:14;19.38;;;14.45;;
63945;SDS011;50122;56.330;43.838;2022-08-24T01:07:44;22.33;;;13.65;;
63945;SDS011;50122;56.330;43.838;2022-08-24T01:10:21;21.33;;;14.10;;
63945;SDS011;50122;56.330;43.838;2022-08-24T01:12:52;20.52;;;14.63;;
63945;SDS011;50122;56.330;43.838;2022-08-24T01:15:27;21.60;;;13.35;;
63945;SDS011;50122;56.330;43.838;2022-08-24T01:17:55;17.92;;;13.70;;
63945;SDS011;50122;56.330;43.838;2022-08-24T01:20:42;22.23;;;13.30;;
63945;SDS011;50122;56.330;43.838;2022-08-24T01:26:22;19.90;;;13.05;;
63945;SDS011;50122;56.330;43.838;2022-08-24T01:29:03;19.48;;;13.07;;
63945;SDS011;50122;56.330;43.838;2022-08-24T01:31:44;20.10;;;14.20;;
63945;SDS011;50122;56.330;43.838;2022-08-24T01:34:11;19.52;;;13.68;;
63945;SDS011;50122;56.330;43.838;2022-08-24T01:36:42;20.63;;;13.15;;
63945;SDS011;50122;56.330;43.838;2022-08-24T01:39:13;17.20;;;13.80;;
63945;SDS011;50122;56.330;43.838;2022-08-24T01:41:46;21.92;;;14.10;;
63945;SDS011;50122;56.330;43.838;2022-08-24T01:44:15;25.00;;;14.43;;
63945;SDS011;50122;56.330;43.838;2022-08-24T01:46:46;19.50;;;13.30;;
63945;SDS011;50122;56.330;43.838;2022-08-24T01:49:15;18.38;;;13.90;;
63945;SDS011;50122;56.330;43.838;2022-08-24T01:51:42;22.30;;;13.88;;
63945;SDS011;50122;56.330;43.838;2022-08-24T01:54:11;17.50;;;13.30;;
63945;SDS011;50122;56.330;43.838;2022-08-24T01:56:39;22.13;;;13.70;;
63945;SDS011;50122;56.330;43.838;2022-08-24T01:59:06;19.92;;;13.68;;
63945;SDS011;50122;56.330;43.838;2022-08-24T02:01:37;22.17;;;13.38;;
63945;SDS011;50122;56.330;43.838;2022-08-24T02:04:09;21.98;;;13.02;;
63945;SDS011;50122;56.330;43.838;2022-08-24T02:06:42;17.10;;;12.98;;
63945;SDS011;50122;56.330;43.838;2022-08-24T02:09:09;20.67;;;13.45;;
63945;SDS011;50122;56.330;43.838;2022-08-24T02:11:37;23.80;;;13.80;;
63945;SDS011;50122;56.330;43.838;2022-08-24T02:14:07;19.02;;;13.00;;
63945;SDS011;50122;56.330;43.838;2022-08-24T02:16:34;17.45;;;13.50;;
63945;SDS011;50122;56.330;43.838;2022-08-24T02:19:03;21.20;;;13.93;;
63945;SDS011;50122;56.330;43.838;2022-08-24T02:21:30;19.45;;;13.90;;
63945;SDS011;50122;56.330;43.838;2022-08-24T02:23:56;16.67;;;13.77;;
63945;SDS011;50122;56.330;43.838;2022-08-24T02:26:24;19.73;;;13.48;;
63945;SDS011;50122;56.330;43.838;2022-08-24T02:28:56;19.25;;;13.68;;
63945;SDS011;50122;56.330;43.838;2022-08-24T02:31:28;19.48;;;12.48;;
63945;SDS011;50122;56.330;43.838;2022-08-24T02:33:57;19.88;;;13.77;;
63945;SDS011;50122;56.330;43.838;2022-08-24T02:36:24;22.90;;;13.15;;
63945;SDS011;50122;56.330;43.838;2022-08-24T02:38:52;21.65;;;13.85;;
63945;SDS011;50122;56.330;43.838;2022-08-24T02:41:20;20.70;;;13.85;;
63945;SDS011;50122;56.330;43.838;2022-08-24T02:43:48;22.17;;;14.18;;
63945;SDS011;50122;56.330;43.838;2022-08-24T02:46:18;19.67;;;13.80;;
63945;SDS011;50122;56.330;43.838;2022-08-24T02:48:46;21.88;;;14.20;;
63945;SDS011;50122;56.330;43.838;2022-08-24T02:51:33;21.17;;;14.00;;
63945;SDS011;50122;56.330;43.838;2022-08-24T02:54:09;22.38;;;14.80;;
63945;SDS011;50122;56.330;43.838;2022-08-24T02:56:37;24.98;;;14.30;;
63945;SDS011;50122;56.330;43.838;2022-08-24T02:59:03;24.45;;;14.13;;
63945;SDS011;50122;56.330;43.838;2022-08-24T03:01:30;21.98;;;14.23;;
63945;SDS011;50122;56.330;43.838;2022-08-24T03:03:58;24.40;;;14.32;;
63945;SDS011;50122;56.330;43.838;2022-08-24T03:06:26;21.73;;;14.30;;
63945;SDS011;50122;56.330;43.838;2022-08-24T03:08:52;19.67;;;13.80;;
63945;SDS011;50122;56.330;43.838;2022-08-24T03:11:21;27.92;;;15.20;;
63945;SDS011;50122;56.330;43.838;2022-08-24T03:13:54;25.67;;;15.13;;
63945;SDS011;50122;56.330;43.838;2022-08-24T03:16:23;24.40;;;15.15;;
63945;SDS011;50122;56.330;43.838;2022-08-24T03:18:51;29.85;;;14.98;;
63945;SDS011;50122;56.330;43.838;2022-08-24T03:21:19;27.30;;;14.77;;
63945;SDS011;50122;56.330;43.838;2022-08-24T03:23:46;24.67;;;14.98;;
63945;SDS011;50122;56.330;43.838;2022-08-24T03:26:13;28.67;;;15.23;;
63945;SDS011;50122;56.330;43.838;2022-08-24T03:28:40;28.27;;;15.35;;
63945;SDS011;50122;56.330;43.838;2022-08-24T03:31:10;32.70;;;15.27;;
63945;SDS011;50122;56.330;43.838;2022-08-24T03:33:38;24.95;;;15.93;;
63945;SDS011;50122;56.330;43.838;2022-08-24T03:36:05;28.30;;;15.88;;
63945;SDS011;50122;56.330;43.838;2022-08-24T03:38:38;28.33;;;16.17;;
63945;SDS011;50122;56.330;43.838;2022-08-24T03:41:05;35.05;;;15.70;;
63945;SDS011;50122;56.330;43.838;2022-08-24T03:43:32;44.67;;;16.95;;
63945;SDS011;50122;56.330;43.838;2022-08-24T03:46:20;37.25;;;16.58;;
63945;SDS011;50122;56.330;43.838;2022-08-24T17:00:20;75.03;;;24.42;;
63945;SDS011;50122;56.330;43.838;2022-08-24T17:02:47;92.65;;;24.52;;
63945;SDS011;50122;56.330;43.838;2022-08-24T17:05:15;194.38;;;27.92;;
63945;SDS011;50122;56.330;43.838;2022-08-24T17:07:43;90.93;;;25.35;;
63945;SDS011;50122;56.330;43.838;2022-08-24T17:10:12;84.90;;;26.33;;
63945;SDS011;50122;56.330;43.838;2022-08-24T17:12:41;76.35;;;25.13;;
63945;SDS011;50122;56.330;43.838;2022-08-24T17:15:08;84.50;;;25.65;;
63945;SDS011;50122;56.330;43.838;2022-08-24T17:17:52;292.25;;;32.03;;
63945;SDS011;50122;56.330;43.838;2022-08-24T17:20:21;341.30;;;35.42;;
63945;SDS011;50122;56.330;43.838;2022-08-24T17:22:48;292.10;;;33.95;;
63945;SDS011;50122;56.330;43.838;2022-08-24T17:25:15;176.52;;;28.95;;
63945;SDS011;50122;56.330;43.838;2022-08-24T17:27:41;138.80;;;27.75;;
63945;SDS011;50122;56.330;43.838;2022-08-24T17:30:10;219.73;;;31.48;;
63945;SDS011;50122;56.330;43.838;2022-08-24T17:32:42;294.92;;;37.17;;
63945;SDS011;50122;56.330;43.838;2022-08-24T17:35:08;146.50;;;29.60;;
63945;SDS011;50122;56.330;43.838;2022-08-24T17:37:38;127.47;;;29.45;;
63945;SDS011;50122;56.330;43.838;2022-08-24T17:40:06;89.32;;;26.73;;
63945;SDS011;50122;56.330;43.838;2022-08-24T17:42:36;98.63;;;25.40;;
63945;SDS011;50122;56.330;43.838;2022-08-24T17:45:16;97.32;;;23.83;;
63945;SDS011;50122;56.330;43.838;2022-08-24T17:47:43;133.95;;;26.25;;
63945;SDS011;50122;56.330;43.838;2022-08-24T17:50:11;84.75;;;23.90;;
63945;SDS011;50122;56.330;43.838;2022-08-24T17:52:39;73.72;;;24.00;;
63945;SDS011;50122;56.330;43.838;2022-08-24T17:55:07;64.68;;;23.63;;
63945;SDS011;50122;56.330;43.838;2022-08-24T17:57:35;138.52;;;26.60;;
63945;SDS011;50122;56.330;43.838;2022-08-24T18:00:04;115.00;;;25.98;;
63945;SDS011;50122;56.330;43.838;2022-08-24T18:02:33;112.30;;;27.65;;
63945;SDS011;50122;56.330;43.838;2022-08-24T18:05:00;98.78;;;25.83;;
63945;SDS011;50122;56.330;43.838;2022-08-24T18:07:27;70.50;;;26.23;;
63945;SDS011;50122;56.330;43.838;2022-08-24T18:10:16;71.65;;;24.60;;
63945;SDS011;50122;56.330;43.838;2022-08-24T18:12:47;71.28;;;26.38;;
63945;SDS011;50122;56.330;43.838;2022-08-24T18:15:15;65.05;;;26.00;;
63945;SDS011;50122;56.330;43.838;2022-08-24T18:17:42;82.88;;;28.35;;
63945;SDS011;50122;56.330;43.838;2022-08-24T18:20:11;124.70;;;29.63;;
63945;SDS011;50122;56.330;43.838;2022-08-24T18:22:40;84.28;;;28.77;;
63945;SDS011;50122;56.330;43.838;2022-08-24T18:25:10;78.85;;;29.42;;
63945;SDS011;50122;56.330;43.838;2022-08-24T18:27:42;72.82;;;30.63;;
63945;SDS011;50122;56.330;43.838;2022-08-24T18:30:19;59.70;;;30.27;;
63945;SDS011;50122;56.330;43.838;2022-08-24T18:32:53;64.68;;;30.80;;
63945;SDS011;50122;56.330;43.838;2022-08-24T18:35:20;72.82;;;31.88;;
63945;SDS011;50122;56.330;43.838;2022-08-24T18:37:47;70.35;;;33.60;;
63945;SDS011;50122;56.330;43.838;2022-08-24T18:40:15;64.43;;;32.05;;
63945;SDS011;50122;56.330;43.838;2022-08-24T18:42:46;86.10;;;33.08;;
63945;SDS011;50122;56.330;43.838;2022-08-24T18:45:16;116.05;;;34.33;;
63945;SDS011;50122;56.330;43.838;2022-08-24T18:47:46;95.35;;;34.50;;
63945;SDS011;50122;56.330;43.838;2022-08-24T18:50:18;84.63;;;34.33;;
63945;SDS011;50122;56.330;43.838;2022-08-24T18:52:46;84.45;;;33.10;;
63945;SDS011;50122;56.330;43.838;2022-08-24T18:55:13;72.75;;;32.75;;
63945;SDS011;50122;56.330;43.838;2022-08-24T18:57:40;70.18;;;34.05;;
63945;SDS011;50122;56.330;43.838;2022-08-24T19:00:07;68.93;;;34.78;;
63945;SDS011;50122;56.330;43.838;2022-08-24T19:02:35;73.13;;;34.65;;
63945;SDS011;50122;56.330;43.838;2022-08-24T19:07:45;66.80;;;34.28;;
63945;SDS011;50122;56.330;43.838;2022-08-24T19:10:18;62.50;;;32.65;;
63945;SDS011;50122;56.330;43.838;2022-08-24T19:12:56;74.07;;;34.85;;
63945;SDS011;50122;56.330;43.838;2022-08-24T19:15:28;71.97;;;32.40;;
63945;SDS011;50122;56.330;43.838;2022-08-24T19:18:05;75.47;;;33.05;;
63945;SDS011;50122;56.330;43.838;2022-08-24T19:20:33;75.07;;;31.92;;
63945;SDS011;50122;56.330;43.838;2022-08-24T19:23:05;69.75;;;31.30;;
63945;SDS011;50122;56.330;43.838;2022-08-24T19:25:35;71.35;;;30.80;;
63945;SDS011;50122;56.330;43.838;2022-08-24T19:28:03;60.65;;;29.70;;
